Time;durP1;ratioP1;P1;durP2;ratioP2;P2;SDS_P1;SDS_P2;PMS_P1;PMS_P2;Temp;Humidity;BMP_temperature;BMP_pressure;BME280_temperature;BME280_humidity;BME280_pressure;Samples;Min_cycle;Max_cycle;Signal;HPM_P1;HPM_P2
2022/10/19 00:01:45;;;;;;;;;;;25.10;99.90;;;;;;4972696;28;19922;-54
2022/10/19 00:04:10;;;;;;;;;;;25.10;99.90;;;;;;4974528;28;19906;-54
2022/10/19 00:06:36;;;;;;;;;;;25.00;99.90;;;;;;4974321;28;19915;-55
2022/10/19 00:09:06;;;;;;;;;;;25.00;99.90;;;;;;4974227;28;19906;-56
2022/10/19 00:11:33;;;;;;;;;;;25.00;99.90;;;;;;4973901;28;19906;-56
2022/10/19 00:13:59;;;;;;;;;;;25.00;99.90;;;;;;4973904;28;19997;-57
2022/10/19 00:16:26;;;;;;;;;;;25.00;99.90;;;;;;4973994;28;19921;-57
2022/10/19 00:18:54;;;;;;;;;;;25.00;99.90;;;;;;4973979;28;19906;-57
2022/10/19 00:21:20;;;;;;;;;;;25.00;99.90;;;;;;4973794;28;19914;-57
2022/10/19 00:23:45;;;;;;;;;;;25.00;99.90;;;;;;4973744;28;19933;-56
2022/10/19 00:26:11;;;;;;;;;;;25.00;99.90;;;;;;4974060;28;20361;-56
2022/10/19 00:28:37;;;;;;;;;;;25.00;99.90;;;;;;4973734;28;19910;-56
2022/10/19 00:31:06;;;;;;;;;;;25.00;99.90;;;;;;4973548;28;20340;-56
2022/10/19 00:33:32;;;;;;;;;;;24.90;99.90;;;;;;4973560;28;19906;-56
2022/10/19 00:35:58;;;;;;;;;;;24.90;99.90;;;;;;4973635;28;20047;-55
2022/10/19 00:38:24;;;;;;;;;;;24.90;99.90;;;;;;4988489;28;19906;-56
2022/10/19 00:40:49;;;;;;;;;;;24.90;99.90;;;;;;4973450;28;20319;-56
2022/10/19 00:43:23;;;;;;;;;;;24.90;99.90;;;;;;4973476;28;19989;-55
2022/10/19 00:45:49;;;;;;;;;;;24.90;99.90;;;;;;4973383;28;19937;-56
2022/10/19 00:48:21;;;;;;;;;;;24.90;99.90;;;;;;4973523;28;19957;-56
2022/10/19 00:50:48;;;;;;;;;;;24.90;99.90;;;;;;4973109;28;20303;-56
2022/10/19 00:53:14;;;;;;;;;;;24.90;99.90;;;;;;4973454;28;19906;-56
2022/10/19 00:55:40;;;;;;;;;;;24.80;99.90;;;;;;4973274;28;19917;-56
2022/10/19 00:58:06;;;;;;;;;;;24.80;99.90;;;;;;4973312;28;20044;-56
2022/10/19 01:00:32;;;;;;;;;;;24.80;99.90;;;;;;4973463;28;19918;-56
2022/10/19 01:02:58;;;;;;;;;;;24.80;99.90;;;;;;4973073;28;19929;-56
2022/10/19 01:05:25;;;;;;;;;;;24.70;99.90;;;;;;4973045;28;20362;-56
2022/10/19 01:07:51;;;;;;;;;;;24.70;99.90;;;;;;4973196;28;20293;-56
2022/10/19 01:10:18;;;;;;;;;;;24.70;99.90;;;;;;4972885;28;19909;-56
2022/10/19 01:12:50;;;;;;;;;;;24.70;99.90;;;;;;4973152;28;19906;-56
2022/10/19 01:15:15;;;;;;;;;;;24.70;99.90;;;;;;4973324;28;19917;-56
2022/10/19 01:17:50;;;;;;;;;;;24.70;99.90;;;;;;4973090;28;19906;-56
2022/10/19 01:20:32;;;;;;;;;;;24.70;99.90;;;;;;4988075;28;20005;-55
2022/10/19 01:23:16;;;;;;;;;;;24.70;99.90;;;;;;4973019;28;19912;-56
2022/10/19 01:26:00;;;;;;;;;;;24.70;99.90;;;;;;4972864;28;19913;-56
2022/10/19 01:28:44;;;;;;;;;;;24.70;99.90;;;;;;4987736;28;19913;-56
2022/10/19 01:31:16;;;;;;;;;;;24.70;99.90;;;;;;4972849;28;19906;-56
2022/10/19 01:34:05;;;;;;;;;;;24.60;99.90;;;;;;4972825;28;19945;-57
2022/10/19 01:36:33;;;;;;;;;;;24.70;99.90;;;;;;4977337;28;20012;-56
2022/10/19 01:39:03;;;;;;;;;;;24.70;99.90;;;;;;4972944;28;19957;-57
2022/10/19 01:41:34;;;;;;;;;;;24.70;99.90;;;;;;4963715;28;19945;-55
2022/10/19 01:44:02;;;;;;;;;;;24.70;99.90;;;;;;4981591;28;19940;-55
2022/10/19 01:46:50;;;;;;;;;;;24.70;99.90;;;;;;4962681;28;19902;-54
2022/10/19 01:49:27;;;;;;;;;;;24.60;99.90;;;;;;4963939;28;19913;-53
2022/10/19 01:51:58;;;;;;;;;;;24.70;99.90;;;;;;4960662;28;19906;-52
2022/10/19 01:54:25;;;;;;;;;;;24.70;99.90;;;;;;4963447;28;19969;-51
2022/10/19 01:56:52;;;;;;;;;;;24.70;99.90;;;;;;4962928;28;20226;-51
2022/10/19 02:01:50;;;;;;;;;;;24.70;99.90;;;;;;4989609;28;19921;-47
2022/10/19 02:04:17;;;;;;;;;;;24.70;99.90;;;;;;4992377;28;19917;-48
2022/10/19 02:06:43;;;;;;;;;;;24.70;99.90;;;;;;4992025;28;19913;-47
2022/10/19 02:09:09;;;;;;;;;;;24.70;99.90;;;;;;4989012;28;19918;-47
2022/10/19 02:11:36;;;;;;;;;;;24.70;99.90;;;;;;4991503;28;19910;-47
2022/10/19 02:14:08;;;;;;;;;;;24.70;99.90;;;;;;4987559;28;19910;-48
2022/10/19 02:16:35;;;;;;;;;;;24.80;99.90;;;;;;4985609;28;20265;-48
2022/10/19 02:19:02;;;;;;;;;;;24.80;99.90;;;;;;4984909;28;19913;-47
2022/10/19 02:21:27;;;;;;;;;;;24.90;99.90;;;;;;4988975;28;19922;-48
2022/10/19 02:23:53;;;;;;;;;;;24.90;99.90;;;;;;4993770;28;20365;-48
2022/10/19 02:26:19;;;;;;;;;;;25.00;99.90;;;;;;4994025;28;19913;-48
2022/10/19 02:28:45;;;;;;;;;;;25.00;99.90;;;;;;4993770;28;20300;-48
2022/10/19 02:31:11;;;;;;;;;;;25.00;99.90;;;;;;4993722;28;19928;-48
2022/10/19 02:33:37;;;;;;;;;;;25.00;99.90;;;;;;4993795;28;19913;-47
2022/10/19 02:36:03;;;;;;;;;;;25.00;99.90;;;;;;4993632;28;20323;-48
2022/10/19 02:38:28;;;;;;;;;;;25.00;99.90;;;;;;4993744;28;19937;-48
2022/10/19 02:41:06;;;;;;;;;;;25.00;99.90;;;;;;4995144;28;19913;-48
2022/10/19 02:43:33;;;;;;;;;;;25.10;99.90;;;;;;4995315;28;19906;-48
2022/10/19 02:46:00;;;;;;;;;;;25.10;99.90;;;;;;4995268;28;19906;-48
2022/10/19 02:48:28;;;;;;;;;;;25.10;99.90;;;;;;4995302;28;19948;-48
2022/10/19 02:50:53;;;;;;;;;;;25.10;99.90;;;;;;4995191;28;19906;-48
2022/10/19 02:53:19;;;;;;;;;;;25.10;99.90;;;;;;4995379;28;19906;-48
2022/10/19 02:55:46;;;;;;;;;;;25.10;99.90;;;;;;4993824;28;20400;-48
2022/10/19 02:58:12;;;;;;;;;;;25.10;99.90;;;;;;4995180;28;20325;-49
2022/10/19 03:00:37;;;;;;;;;;;25.10;99.90;;;;;;5006752;23;19922;-53
2022/10/19 03:03:03;;;;;;;;;;;25.10;99.90;;;;;;4995022;28;19913;-53
2022/10/19 03:05:29;;;;;;;;;;;25.10;99.90;;;;;;4994930;28;19939;-53
2022/10/19 03:07:54;;;;;;;;;;;25.20;99.90;;;;;;4994824;28;19910;-53
2022/10/19 03:10:20;;;;;;;;;;;25.20;99.90;;;;;;4995224;28;19928;-54
2022/10/19 03:12:45;;;;;;;;;;;25.20;99.90;;;;;;4994966;28;19913;-53
2022/10/19 03:15:15;;;;;;;;;;;25.10;99.90;;;;;;4994816;28;19913;-53
2022/10/19 03:17:41;;;;;;;;;;;25.20;99.90;;;;;;4994914;28;19906;-54
2022/10/19 03:20:07;;;;;;;;;;;25.10;99.90;;;;;;4994761;28;19937;-54
2022/10/19 03:22:33;;;;;;;;;;;25.20;99.90;;;;;;4994602;28;19949;-55
2022/10/19 03:24:58;;;;;;;;;;;25.10;99.90;;;;;;4994704;28;20353;-55
2022/10/19 03:27:24;;;;;;;;;;;25.10;99.90;;;;;;4994824;28;19913;-54
2022/10/19 03:29:49;;;;;;;;;;;25.10;99.90;;;;;;4994611;28;20314;-54
2022/10/19 03:32:15;;;;;;;;;;;25.10;99.90;;;;;;4994729;28;19910;-55
2022/10/19 03:34:40;;;;;;;;;;;25.10;99.90;;;;;;4993846;28;19906;-54
2022/10/19 03:37:07;;;;;;;;;;;25.10;99.90;;;;;;4994335;28;19908;-54
2022/10/19 03:39:33;;;;;;;;;;;25.10;99.90;;;;;;4994509;28;19960;-54
2022/10/19 03:41:59;;;;;;;;;;;25.10;99.90;;;;;;4994190;28;20274;-54
2022/10/19 03:44:24;;;;;;;;;;;25.00;99.90;;;;;;4994468;28;19930;-55
2022/10/19 03:46:50;;;;;;;;;;;25.00;99.90;;;;;;4994034;28;19916;-55
2022/10/19 03:49:15;;;;;;;;;;;25.10;99.90;;;;;;4994403;28;19905;-55
2022/10/19 03:51:41;;;;;;;;;;;25.00;99.90;;;;;;4994118;28;19906;-54
2022/10/19 03:54:10;;;;;;;;;;;25.00;99.90;;;;;;4994125;28;19988;-55
2022/10/19 03:56:35;;;;;;;;;;;25.00;99.90;;;;;;4993990;28;19988;-55
2022/10/19 03:59:02;;;;;;;;;;;25.00;99.90;;;;;;4993973;28;19960;-55
2022/10/19 04:01:29;;;;;;;;;;;25.00;99.90;;;;;;4994291;28;19961;-55
2022/10/19 04:03:56;;;;;;;;;;;25.00;99.90;;;;;;4994069;28;19910;-54
2022/10/19 04:06:24;;;;;;;;;;;25.00;99.90;;;;;;4994043;28;19913;-55
2022/10/19 04:08:49;;;;;;;;;;;25.00;99.90;;;;;;4993850;28;19914;-54
2022/10/19 04:11:16;;;;;;;;;;;25.00;99.90;;;;;;4993829;28;19905;-55
2022/10/19 04:13:41;;;;;;;;;;;25.00;99.90;;;;;;4993957;28;19909;-54
2022/10/19 04:16:08;;;;;;;;;;;25.00;99.90;;;;;;4993703;28;19944;-54
2022/10/19 04:18:34;;;;;;;;;;;25.00;99.90;;;;;;4993647;28;19953;-53
2022/10/19 04:21:01;;;;;;;;;;;25.00;99.90;;;;;;4993592;28;20046;-54
2022/10/19 04:23:27;;;;;;;;;;;25.00;99.90;;;;;;4993745;28;19906;-54
2022/10/19 04:26:03;;;;;;;;;;;25.00;99.90;;;;;;4993609;28;19906;-53
2022/10/19 04:28:28;;;;;;;;;;;25.00;99.90;;;;;;4993548;28;20342;-53
2022/10/19 04:30:54;;;;;;;;;;;25.00;99.90;;;;;;4993766;28;19960;-53
2022/10/19 04:33:20;;;;;;;;;;;25.00;99.90;;;;;;4993280;28;20239;-53
2022/10/19 04:35:45;;;;;;;;;;;25.00;99.90;;;;;;4993247;28;20354;-53
2022/10/19 04:38:11;;;;;;;;;;;25.00;99.90;;;;;;4993290;28;19913;-53
2022/10/19 04:40:37;;;;;;;;;;;25.00;99.90;;;;;;4993125;28;20358;-53
2022/10/19 04:43:03;;;;;;;;;;;25.00;99.90;;;;;;4993294;28;19913;-53
2022/10/19 04:45:28;;;;;;;;;;;25.00;99.90;;;;;;4992422;28;19906;-53
2022/10/19 04:47:55;;;;;;;;;;;25.00;99.90;;;;;;4993034;28;20362;-52
2022/10/19 04:50:24;;;;;;;;;;;25.10;99.90;;;;;;4993182;28;19910;-53
2022/10/19 04:52:49;;;;;;;;;;;25.10;99.90;;;;;;4993086;28;20318;-54
2022/10/19 04:55:15;;;;;;;;;;;25.10;99.90;;;;;;4991742;28;20025;-54
2022/10/19 04:57:41;;;;;;;;;;;25.10;99.90;;;;;;4992869;28;19906;-54
2022/10/19 05:00:06;;;;;;;;;;;25.10;99.90;;;;;;4992599;28;20013;-53
2022/10/19 05:02:32;;;;;;;;;;;25.10;99.90;;;;;;4992877;28;19906;-54
2022/10/19 05:04:58;;;;;;;;;;;25.20;99.90;;;;;;4993054;28;20411;-54
2022/10/19 05:07:23;;;;;;;;;;;25.20;99.90;;;;;;4992762;28;19953;-54
2022/10/19 05:09:49;;;;;;;;;;;25.20;99.90;;;;;;4992869;28;19913;-54
2022/10/19 05:12:14;;;;;;;;;;;25.20;99.90;;;;;;4992665;28;19921;-54
2022/10/19 05:14:40;;;;;;;;;;;25.20;99.90;;;;;;4992682;28;19906;-54
2022/10/19 05:17:06;;;;;;;;;;;25.20;99.90;;;;;;5007635;28;20365;-54
2022/10/19 05:19:31;;;;;;;;;;;25.20;99.90;;;;;;4991451;28;19992;-53
2022/10/19 05:21:57;;;;;;;;;;;25.30;99.90;;;;;;4992464;28;19914;-53
2022/10/19 05:24:22;;;;;;;;;;;25.30;99.90;;;;;;4992415;28;20448;-53
2022/10/19 05:26:48;;;;;;;;;;;25.30;99.90;;;;;;4992331;28;19964;-53
2022/10/19 05:29:13;;;;;;;;;;;25.30;99.90;;;;;;4992381;28;19906;-54
2022/10/19 05:31:39;;;;;;;;;;;25.30;99.90;;;;;;4992411;28;19906;-53
2022/10/19 05:34:05;;;;;;;;;;;25.30;99.90;;;;;;4992323;28;20297;-54
2022/10/19 05:36:35;;;;;;;;;;;25.30;99.90;;;;;;4992641;28;19909;-54
2022/10/19 05:39:05;;;;;;;;;;;25.20;99.90;;;;;;4992405;28;19906;-54
2022/10/19 05:41:31;;;;;;;;;;;25.20;99.90;;;;;;4992328;28;20280;-53
2022/10/19 05:43:57;;;;;;;;;;;25.30;99.90;;;;;;4992228;28;20001;-54
2022/10/19 05:46:23;;;;;;;;;;;25.30;99.90;;;;;;4992144;28;19988;-54
2022/10/19 05:48:49;;;;;;;;;;;25.20;99.90;;;;;;4992103;28;19952;-54
2022/10/19 05:51:16;;;;;;;;;;;25.20;99.90;;;;;;4992136;28;19910;-54
2022/10/19 05:53:42;;;;;;;;;;;25.20;99.90;;;;;;4992195;28;20013;-54
2022/10/19 05:56:08;;;;;;;;;;;25.20;99.90;;;;;;4992092;28;20349;-54
2022/10/19 05:58:34;;;;;;;;;;;25.20;99.90;;;;;;4995677;28;20365;-54
2022/10/19 06:01:00;;;;;;;;;;;25.20;99.90;;;;;;4996042;28;19918;-54
2022/10/19 06:03:26;;;;;;;;;;;25.20;99.90;;;;;;4996231;28;19921;-54
2022/10/19 06:05:52;;;;;;;;;;;25.20;99.90;;;;;;4996121;28;20065;-54
2022/10/19 06:08:19;;;;;;;;;;;25.20;99.90;;;;;;4995976;28;19906;-54
2022/10/19 06:10:45;;;;;;;;;;;25.20;99.90;;;;;;4996011;28;19906;-55
2022/10/19 06:13:11;;;;;;;;;;;25.20;99.90;;;;;;4995979;28;19912;-55
2022/10/19 06:15:38;;;;;;;;;;;25.20;99.90;;;;;;4995731;28;19906;-54
2022/10/19 06:18:11;;;;;;;;;;;25.20;99.90;;;;;;4996103;28;19906;-55
2022/10/19 06:20:37;;;;;;;;;;;25.20;99.90;;;;;;5010708;28;19910;-55
2022/10/19 06:23:04;;;;;;;;;;;25.30;99.90;;;;;;4995789;28;19905;-54
2022/10/19 06:25:30;;;;;;;;;;;25.30;99.90;;;;;;4995562;28;19906;-54
2022/10/19 06:27:56;;;;;;;;;;;25.30;99.90;;;;;;4995593;28;19997;-54
2022/10/19 06:30:22;;;;;;;;;;;25.30;99.90;;;;;;4995565;28;20000;-55
2022/10/19 06:32:47;;;;;;;;;;;25.30;99.90;;;;;;4995502;28;19952;-54
2022/10/19 06:35:13;;;;;;;;;;;25.30;99.90;;;;;;4995616;28;19912;-55
2022/10/19 06:37:38;;;;;;;;;;;25.30;99.90;;;;;;4995658;28;19992;-55
2022/10/19 06:40:04;;;;;;;;;;;25.30;99.90;;;;;;4994239;28;19920;-55
2022/10/19 06:42:30;;;;;;;;;;;25.30;99.90;;;;;;4995531;28;20251;-55
2022/10/19 06:44:56;;;;;;;;;;;25.30;99.90;;;;;;4995339;28;19906;-54
2022/10/19 06:47:21;;;;;;;;;;;25.30;99.90;;;;;;4995405;28;19906;-54
2022/10/19 06:49:47;;;;;;;;;;;25.30;99.90;;;;;;4995395;28;19906;-56
2022/10/19 06:52:12;;;;;;;;;;;25.30;99.90;;;;;;5010379;28;20310;-54
2022/10/19 06:54:38;;;;;;;;;;;25.30;99.90;;;;;;4995365;28;19957;-54
2022/10/19 06:57:03;;;;;;;;;;;25.30;99.90;;;;;;4995216;28;19906;-54
2022/10/19 06:59:29;;;;;;;;;;;25.30;99.90;;;;;;4994865;28;19916;-54
2022/10/19 07:01:55;;;;;;;;;;;25.30;99.90;;;;;;4994700;28;19925;-54
2022/10/19 07:04:23;;;;;;;;;;;25.30;99.90;;;;;;4994923;28;19941;-55
2022/10/19 07:06:49;;;;;;;;;;;25.30;99.90;;;;;;4994771;28;19928;-55
2022/10/19 07:09:14;;;;;;;;;;;25.40;99.90;;;;;;4993986;28;19928;-55
2022/10/19 07:11:40;;;;;;;;;;;25.40;99.90;;;;;;4994853;28;19925;-54
2022/10/19 07:14:05;;;;;;;;;;;25.40;99.90;;;;;;4994894;28;20284;-55
2022/10/19 07:16:31;;;;;;;;;;;25.40;99.90;;;;;;4994826;28;19905;-55
2022/10/19 07:18:59;;;;;;;;;;;25.40;99.90;;;;;;4994595;28;20373;-55
2022/10/19 07:21:24;;;;;;;;;;;25.40;99.90;;;;;;4994597;28;19913;-55
2022/10/19 07:23:50;;;;;;;;;;;25.40;99.90;;;;;;4994557;28;19917;-55
2022/10/19 07:26:26;;;;;;;;;;;25.40;99.90;;;;;;4994645;28;19996;-55
2022/10/19 07:28:54;;;;;;;;;;;25.40;99.90;;;;;;4994481;28;19906;-55
2022/10/19 07:31:22;;;;;;;;;;;25.40;99.90;;;;;;4993190;28;19905;-55
2022/10/19 07:33:54;;;;;;;;;;;25.40;99.90;;;;;;4994634;28;19905;-55
2022/10/19 07:36:20;;;;;;;;;;;25.40;99.90;;;;;;4994408;28;19959;-55
2022/10/19 07:38:46;;;;;;;;;;;25.40;99.90;;;;;;4994325;28;19906;-55
2022/10/19 07:41:13;;;;;;;;;;;25.40;99.90;;;;;;4994339;28;19921;-55
2022/10/19 07:43:39;;;;;;;;;;;25.50;99.90;;;;;;4994579;28;20005;-55
2022/10/19 07:46:06;;;;;;;;;;;25.50;99.90;;;;;;4994315;28;19909;-55
2022/10/19 07:48:32;;;;;;;;;;;25.50;99.90;;;;;;4994148;28;19902;-55
2022/10/19 07:50:59;;;;;;;;;;;25.50;99.90;;;;;;4994222;28;19913;-54
2022/10/19 07:53:25;;;;;;;;;;;25.40;99.90;;;;;;4994073;28;19993;-54
2022/10/19 07:55:50;;;;;;;;;;;25.40;99.90;;;;;;4994136;28;20397;-55
2022/10/19 07:58:16;;;;;;;;;;;25.40;99.90;;;;;;4994075;28;19913;-55
2022/10/19 08:00:41;;;;;;;;;;;25.30;99.90;;;;;;4994044;28;19924;-54
2022/10/19 08:03:07;;;;;;;;;;;25.30;99.90;;;;;;5009025;28;19952;-55
2022/10/19 08:05:33;;;;;;;;;;;25.30;99.90;;;;;;4993788;28;20380;-55
2022/10/19 08:07:58;;;;;;;;;;;25.30;99.90;;;;;;4993739;28;19913;-54
2022/10/19 08:10:24;;;;;;;;;;;25.20;99.90;;;;;;4993759;28;20297;-54
2022/10/19 08:12:49;;;;;;;;;;;25.20;99.90;;;;;;4993524;28;19913;-55
2022/10/19 08:15:15;;;;;;;;;;;25.20;99.90;;;;;;4993790;28;19913;-55
2022/10/19 08:17:41;;;;;;;;;;;25.20;99.90;;;;;;4994009;28;19937;-54
2022/10/19 08:20:07;;;;;;;;;;;25.20;99.90;;;;;;4993279;28;19906;-55
2022/10/19 08:22:32;;;;;;;;;;;25.20;99.90;;;;;;4993404;28;19985;-55
2022/10/19 08:24:58;;;;;;;;;;;25.20;99.90;;;;;;5008524;28;19956;-55
2022/10/19 08:27:24;;;;;;;;;;;25.20;99.90;;;;;;4993304;28;19913;-55
2022/10/19 08:29:50;;;;;;;;;;;25.30;99.90;;;;;;4993457;28;19916;-54
2022/10/19 08:32:17;;;;;;;;;;;25.20;99.90;;;;;;4993505;28;20266;-55
2022/10/19 08:34:42;;;;;;;;;;;25.30;99.90;;;;;;4993628;28;19928;-55
2022/10/19 08:37:08;;;;;;;;;;;25.30;99.90;;;;;;4993544;28;20357;-54
2022/10/19 08:39:34;;;;;;;;;;;25.30;99.90;;;;;;5008245;28;19912;-54
2022/10/19 08:42:04;;;;;;;;;;;25.20;99.90;;;;;;4993013;28;19914;-54
2022/10/19 08:44:32;;;;;;;;;;;25.20;99.90;;;;;;4986850;28;19910;-54
2022/10/19 08:47:13;;;;;;;;;;;25.20;99.90;;;;;;4981979;28;19928;-54
2022/10/19 08:49:39;;;;;;;;;;;25.20;99.90;;;;;;4973600;28;19992;-54
2022/10/19 08:52:06;;;;;;;;;;;25.30;99.90;;;;;;4973533;28;20393;-54
2022/10/19 08:54:52;;;;;;;;;;;25.30;99.90;;;;;;4973339;28;19907;-54
2022/10/19 08:57:27;;;;;;;;;;;25.30;99.90;;;;;;4986601;28;19910;-54
2022/10/19 09:00:15;;;;;;;;;;;25.40;99.90;;;;;;4985962;28;19914;-55
2022/10/19 09:03:02;;;;;;;;;;;25.40;99.90;;;;;;4973396;28;19910;-61
2022/10/19 09:05:28;;;;;;;;;;;25.30;99.90;;;;;;4978155;28;20011;-58
2022/10/19 09:07:53;;;;;;;;;;;25.20;99.90;;;;;;4992180;28;19945;-55
2022/10/19 09:10:23;;;;;;;;;;;25.10;99.90;;;;;;4981479;28;19910;-54
2022/10/19 09:12:52;;;;;;;;;;;25.00;99.90;;;;;;4982374;28;19906;-54
2022/10/19 09:15:19;;;;;;;;;;;25.00;99.90;;;;;;4982244;28;20004;-53
2022/10/19 09:17:45;;;;;;;;;;;24.90;99.90;;;;;;4981922;28;20274;-54
2022/10/19 09:20:18;;;;;;;;;;;24.90;99.90;;;;;;4986105;28;19917;-54
2022/10/19 09:22:44;;;;;;;;;;;24.90;99.90;;;;;;4990754;28;19917;-54
2022/10/19 09:25:18;;;;;;;;;;;24.90;99.90;;;;;;4984709;28;19914;-54
2022/10/19 09:27:46;;;;;;;;;;;24.90;99.90;;;;;;4973181;28;19913;-54
2022/10/19 09:30:16;;;;;;;;;;;24.80;99.90;;;;;;4980879;28;19921;-53
2022/10/19 09:32:42;;;;;;;;;;;24.70;99.90;;;;;;4985993;28;19953;-54
2022/10/19 09:35:26;;;;;;;;;;;24.70;99.90;;;;;;4983916;28;19910;-54
2022/10/19 09:37:52;;;;;;;;;;;24.70;99.90;;;;;;4983182;28;19988;-54
2022/10/19 09:40:20;;;;;;;;;;;24.70;99.90;;;;;;4982850;28;20388;-54
2022/10/19 09:42:49;;;;;;;;;;;24.70;99.90;;;;;;4982555;28;20385;-54
2022/10/19 09:45:18;;;;;;;;;;;24.70;99.90;;;;;;4987595;28;19960;-55
2022/10/19 09:47:46;;;;;;;;;;;24.60;99.90;;;;;;4985079;28;19945;-54
2022/10/19 09:50:15;;;;;;;;;;;24.60;99.90;;;;;;4981655;28;19914;-54
2022/10/19 09:52:41;;;;;;;;;;;24.50;99.90;;;;;;4980771;28;20318;-54
2022/10/19 09:55:18;;;;;;;;;;;24.50;99.90;;;;;;4984951;28;19910;-54
2022/10/19 09:57:45;;;;;;;;;;;24.40;99.90;;;;;;4981298;28;19960;-54
2022/10/19 10:00:24;;;;;;;;;;;24.40;99.90;;;;;;4987770;28;19921;-54
2022/10/19 10:02:51;;;;;;;;;;;24.40;99.90;;;;;;4973900;28;19918;-54
2022/10/19 10:05:17;;;;;;;;;;;24.30;99.90;;;;;;4972628;28;19952;-54
2022/10/19 10:07:43;;;;;;;;;;;24.30;99.90;;;;;;4972712;28;20168;-54
2022/10/19 10:10:29;;;;;;;;;;;24.30;99.90;;;;;;4972417;28;19960;-54
2022/10/19 10:12:56;;;;;;;;;;;24.30;99.90;;;;;;4971998;28;20409;-54
2022/10/19 10:15:27;;;;;;;;;;;24.30;99.90;;;;;;4972601;28;19913;-55
2022/10/19 10:17:54;;;;;;;;;;;24.30;99.90;;;;;;4972667;28;19914;-54
2022/10/19 10:20:29;;;;;;;;;;;24.30;99.90;;;;;;4972539;28;19980;-59
2022/10/19 10:22:57;;;;;;;;;;;24.30;99.90;;;;;;4980463;28;19916;-54
2022/10/19 10:25:24;;;;;;;;;;;24.30;99.90;;;;;;4982863;28;19909;-57
2022/10/19 10:28:13;;;;;;;;;;;24.20;99.90;;;;;;4976045;28;19940;-58
2022/10/19 10:30:38;;;;;;;;;;;24.30;99.90;;;;;;4984649;28;19916;-55
2022/10/19 10:33:04;;;;;;;;;;;24.30;99.90;;;;;;4983884;28;20000;-55
2022/10/19 10:35:32;;;;;;;;;;;24.30;99.90;;;;;;4982508;28;20334;-54
2022/10/19 10:38:15;;;;;;;;;;;24.30;99.90;;;;;;4981231;28;19906;-55
2022/10/19 10:40:48;;;;;;;;;;;24.30;99.90;;;;;;4981767;28;19917;-56
2022/10/19 10:43:16;;;;;;;;;;;24.40;99.90;;;;;;4984420;28;19972;-56
2022/10/19 10:45:44;;;;;;;;;;;24.40;99.90;;;;;;4983895;28;19945;-56
2022/10/19 10:48:13;;;;;;;;;;;24.50;99.90;;;;;;4984637;28;20342;-59
2022/10/19 10:50:38;;;;;;;;;;;24.50;99.90;;;;;;4983694;28;19906;-59
2022/10/19 10:53:05;;;;;;;;;;;24.50;99.90;;;;;;4994661;28;19964;-53
2022/10/19 10:55:32;;;;;;;;;;;24.50;99.90;;;;;;4994328;28;19909;-55
2022/10/19 10:58:10;;;;;;;;;;;24.50;99.90;;;;;;4988087;28;19969;-54
2022/10/19 11:00:39;;;;;;;;;;;24.50;99.90;;;;;;4987366;28;19928;-55
2022/10/19 11:03:04;;;;;;;;;;;24.50;99.90;;;;;;4983767;28;20481;-55
2022/10/19 11:05:32;;;;;;;;;;;24.50;99.90;;;;;;4981015;28;19996;-55
2022/10/19 11:08:02;;;;;;;;;;;24.50;99.90;;;;;;4986301;28;19906;-54
2022/10/19 11:10:31;;;;;;;;;;;24.50;99.90;;;;;;4981286;28;20363;-55
2022/10/19 11:13:03;;;;;;;;;;;24.40;99.90;;;;;;4991065;28;20388;-55
2022/10/19 11:15:38;;;;;;;;;;;24.40;99.90;;;;;;4992459;28;20312;-55
2022/10/19 11:18:10;;;;;;;;;;;24.40;99.90;;;;;;4990540;28;20362;-54
2022/10/19 11:20:39;;;;;;;;;;;24.30;99.90;;;;;;4992327;28;20013;-54
2022/10/19 11:23:16;;;;;;;;;;;24.40;99.90;;;;;;4992107;28;19906;-54
2022/10/19 11:25:41;;;;;;;;;;;24.40;99.90;;;;;;4993404;28;20001;-54
2022/10/19 11:28:10;;;;;;;;;;;24.30;99.90;;;;;;4993512;28;20004;-54
2022/10/19 11:30:40;;;;;;;;;;;24.30;99.90;;;;;;4994538;28;19967;-54
2022/10/19 11:33:13;;;;;;;;;;;24.20;99.90;;;;;;4994349;28;19906;-55
2022/10/19 11:35:39;;;;;;;;;;;24.20;99.90;;;;;;4994301;28;19906;-54
2022/10/19 11:38:20;;;;;;;;;;;24.10;99.90;;;;;;4994373;28;20386;-55
2022/10/19 11:40:59;;;;;;;;;;;24.10;99.90;;;;;;4994246;28;19914;-54
2022/10/19 11:43:51;;;;;;;;;;;24.10;99.90;;;;;;4994578;28;19916;-55
2022/10/19 11:46:20;;;;;;;;;;;24.10;99.90;;;;;;4994251;28;19987;-55
2022/10/19 11:48:54;;;;;;;;;;;24.10;99.90;;;;;;4994083;28;19913;-54
2022/10/19 11:51:20;;;;;;;;;;;24.20;99.90;;;;;;4993935;28;20391;-54
2022/10/19 11:53:57;;;;;;;;;;;24.20;99.90;;;;;;4990258;28;19964;-54
2022/10/19 11:56:41;;;;;;;;;;;24.10;99.90;;;;;;4990658;28;19913;-54
2022/10/19 11:59:25;;;;;;;;;;;24.10;99.90;;;;;;4994037;28;19912;-55
2022/10/19 12:01:59;;;;;;;;;;;24.10;99.90;;;;;;4993853;28;20001;-54
2022/10/19 12:04:34;;;;;;;;;;;24.10;99.90;;;;;;4986130;28;19914;-55
2022/10/19 12:07:18;;;;;;;;;;;24.10;99.90;;;;;;4984915;28;19913;-52
2022/10/19 12:10:03;;;;;;;;;;;24.10;99.90;;;;;;4982470;28;19993;-54
2022/10/19 12:12:48;;;;;;;;;;;24.10;99.90;;;;;;4974922;28;19906;-55
2022/10/19 12:15:29;;;;;;;;;;;24.10;99.90;;;;;;4976923;28;19909;-54
2022/10/19 12:17:56;;;;;;;;;;;24.10;99.90;;;;;;4980857;28;19907;-54
2022/10/19 12:20:25;;;;;;;;;;;24.20;99.90;;;;;;4972845;28;19925;-55
2022/10/19 12:22:50;;;;;;;;;;;24.20;99.90;;;;;;4974380;28;19918;-53
2022/10/19 12:25:16;;;;;;;;;;;24.30;99.90;;;;;;4979541;28;19910;-53
2022/10/19 12:27:46;;;;;;;;;;;24.30;99.90;;;;;;4983625;28;19906;-54
2022/10/19 12:30:22;;;;;;;;;;;24.30;99.90;;;;;;4992869;28;19906;-53
2022/10/19 12:32:47;;;;;;;;;;;24.40;99.90;;;;;;4992976;28;20266;-53
2022/10/19 12:35:28;;;;;;;;;;;24.40;99.90;;;;;;4979379;28;19902;-52
2022/10/19 12:38:04;;;;;;;;;;;24.50;99.90;;;;;;4972285;28;20282;-52
2022/10/19 12:40:29;;;;;;;;;;;24.50;99.90;;;;;;4972793;28;19910;-54
2022/10/19 12:42:55;;;;;;;;;;;24.50;99.90;;;;;;4991630;28;19913;-51
2022/10/19 12:45:24;;;;;;;;;;;24.60;99.90;;;;;;4992032;28;19910;-50
2022/10/19 12:48:08;;;;;;;;;;;24.70;99.90;;;;;;4991854;28;19914;-52
2022/10/19 12:50:49;;;;;;;;;;;24.80;99.90;;;;;;4991835;28;19956;-52
2022/10/19 12:53:23;;;;;;;;;;;24.90;99.90;;;;;;4991766;28;19913;-52
2022/10/19 12:56:08;;;;;;;;;;;25.00;99.90;;;;;;4991702;28;19922;-52
2022/10/19 12:58:42;;;;;;;;;;;25.20;99.90;;;;;;4987806;28;19914;-53
2022/10/19 13:01:12;;;;;;;;;;;25.30;99.90;;;;;;4980840;28;19922;-53
2022/10/19 13:03:40;;;;;;;;;;;25.40;99.90;;;;;;4987277;28;19910;-52
2022/10/19 13:06:11;;;;;;;;;;;25.50;99.90;;;;;;4983912;28;19996;-54
2022/10/19 13:08:40;;;;;;;;;;;25.70;99.90;;;;;;4985485;28;19949;-54
2022/10/19 13:11:08;;;;;;;;;;;25.70;99.90;;;;;;4991410;28;20000;-55
2022/10/19 13:13:53;;;;;;;;;;;25.70;99.90;;;;;;4984826;28;19914;-53
2022/10/19 13:16:27;;;;;;;;;;;25.70;99.90;;;;;;4983839;28;20321;-55
2022/10/19 13:18:59;;;;;;;;;;;25.70;99.90;;;;;;4985899;28;19985;-55
2022/10/19 13:21:43;;;;;;;;;;;25.70;99.90;;;;;;4984438;28;20388;-54
2022/10/19 13:24:24;;;;;;;;;;;25.80;99.90;;;;;;4980166;28;19916;-55
2022/10/19 13:27:02;;;;;;;;;;;25.90;99.90;;;;;;4977278;28;20402;-53
2022/10/19 13:29:47;;;;;;;;;;;25.90;99.90;;;;;;4992268;28;20377;-54
2022/10/19 13:32:28;;;;;;;;;;;25.90;99.90;;;;;;4991049;28;19916;-54
2022/10/19 13:34:54;;;;;;;;;;;25.90;99.90;;;;;;4990307;28;19909;-54
2022/10/19 13:37:20;;;;;;;;;;;26.00;99.90;;;;;;4990475;28;19912;-54
2022/10/19 13:39:46;;;;;;;;;;;25.90;99.90;;;;;;4992527;28;19906;-54
2022/10/19 13:42:37;;;;;;;;;;;25.90;99.90;;;;;;4990154;28;20377;-54
2022/10/19 13:45:03;;;;;;;;;;;25.90;99.90;;;;;;4986482;28;20365;-54
2022/10/19 13:47:38;;;;;;;;;;;25.90;99.90;;;;;;4986443;28;19918;-54
2022/10/19 13:50:04;;;;;;;;;;;25.90;99.90;;;;;;4980509;28;20277;-55
2022/10/19 13:52:44;;;;;;;;;;;25.80;99.90;;;;;;4988348;28;19905;-54
2022/10/19 13:55:46;;;;;;;;;;;25.80;99.90;;;;;;4984122;28;19910;-54
2022/10/19 13:58:30;;;;;;;;;;;25.70;99.90;;;;;;4965160;28;20040;-54
2022/10/19 14:01:08;;;;;;;;;;;25.80;99.90;;;;;;4984834;28;19921;-53
2022/10/19 14:03:33;;;;;;;;;;;25.70;99.90;;;;;;4985350;28;19996;-54
2022/10/19 14:06:01;;;;;;;;;;;25.80;99.90;;;;;;4985928;28;19992;-54
2022/10/19 14:08:46;;;;;;;;;;;25.80;99.90;;;;;;4982334;28;19909;-54
2022/10/19 14:11:11;;;;;;;;;;;25.80;99.90;;;;;;4987821;28;19913;-55
2022/10/19 14:13:37;;;;;;;;;;;25.80;99.90;;;;;;4989924;28;19906;-54
2022/10/19 14:16:03;;;;;;;;;;;25.80;99.90;;;;;;4986635;28;19967;-54
2022/10/19 14:18:33;;;;;;;;;;;25.80;99.90;;;;;;4990120;28;19940;-54
2022/10/19 14:20:59;;;;;;;;;;;25.80;99.90;;;;;;4993860;28;20362;-54
2022/10/19 14:23:33;;;;;;;;;;;25.80;99.90;;;;;;4994230;28;19957;-54
2022/10/19 14:26:06;;;;;;;;;;;25.80;99.90;;;;;;4987263;28;19916;-54
2022/10/19 14:28:32;;;;;;;;;;;25.80;99.90;;;;;;4988588;28;19997;-51
2022/10/19 14:31:04;;;;;;;;;;;25.80;99.90;;;;;;4988801;28;20020;-55